sensor_id;sensor_type;location;lat;lon;timestamp;pressure;altitude;pressure_sealevel;temperature;humidity
35892;BME280;21993;42.672;23.296;2023-06-22T00:01:18;95138.50;;;22.70;60.19
35892;BME280;21993;42.672;23.296;2023-06-22T00:03:44;95131.09;;;22.72;60.38
35892;BME280;21993;42.672;23.296;2023-06-22T00:06:09;95130.47;;;22.70;60.37
35892;BME280;21993;42.672;23.296;2023-06-22T00:08:35;95134.72;;;22.58;60.88
35892;BME280;21993;42.672;23.296;2023-06-22T00:11:00;95131.66;;;22.55;60.75
35892;BME280;21993;42.672;23.296;2023-06-22T00:13:25;95121.75;;;22.55;60.65
35892;BME280;21993;42.672;23.296;2023-06-22T00:15:51;95135.94;;;22.49;60.71
35892;BME280;21993;42.672;23.296;2023-06-22T00:18:16;95128.31;;;22.46;60.47
35892;BME280;21993;42.672;23.296;2023-06-22T00:20:42;95126.25;;;22.48;60.16
35892;BME280;21993;42.672;23.296;2023-06-22T00:23:07;95123.78;;;22.46;59.84
35892;BME280;21993;42.672;23.296;2023-06-22T00:25:37;95116.75;;;22.39;59.83
35892;BME280;21993;42.672;23.296;2023-06-22T00:28:03;95108.28;;;22.35;59.93
35892;BME280;21993;42.672;23.296;2023-06-22T00:30:31;95099.63;;;22.33;60.28
35892;BME280;21993;42.672;23.296;2023-06-22T00:32:56;95102.09;;;22.35;60.15
35892;BME280;21993;42.672;23.296;2023-06-22T00:35:22;95107.00;;;22.25;60.51
35892;BME280;21993;42.672;23.296;2023-06-22T00:37:47;95108.44;;;22.27;59.98
35892;BME280;21993;42.672;23.296;2023-06-22T00:40:13;95102.88;;;22.22;60.02
35892;BME280;21993;42.672;23.296;2023-06-22T00:42:40;95103.09;;;22.27;61.04
35892;BME280;21993;42.672;23.296;2023-06-22T00:45:06;95108.44;;;22.27;61.26
35892;BME280;21993;42.672;23.296;2023-06-22T00:47:33;95112.97;;;22.27;60.75
35892;BME280;21993;42.672;23.296;2023-06-22T00:49:59;95111.28;;;22.19;61.40
35892;BME280;21993;42.672;23.296;2023-06-22T00:52:26;95111.63;;;22.09;61.40
35892;BME280;21993;42.672;23.296;2023-06-22T00:54:54;95112.81;;;22.07;61.51
35892;BME280;21993;42.672;23.296;2023-06-22T00:57:21;95113.69;;;22.07;61.83
35892;BME280;21993;42.672;23.296;2023-06-22T00:59:48;95109.53;;;22.05;61.75
35892;BME280;21993;42.672;23.296;2023-06-22T01:02:14;95111.63;;;22.09;61.73
35892;BME280;21993;42.672;23.296;2023-06-22T01:04:40;95121.06;;;22.05;61.88
35892;BME280;21993;42.672;23.296;2023-06-22T01:07:21;95124.75;;;22.04;61.63
35892;BME280;21993;42.672;23.296;2023-06-22T01:10:14;95133.16;;;22.01;62.38
35892;BME280;21993;42.672;23.296;2023-06-22T01:12:55;95119.78;;;22.01;62.47
35892;BME280;21993;42.672;23.296;2023-06-22T01:15:30;95118.59;;;22.04;62.23
35892;BME280;21993;42.672;23.296;2023-06-22T01:17:57;95123.09;;;22.03;62.08
35892;BME280;21993;42.672;23.296;2023-06-22T01:20:25;95122.03;;;21.98;62.68
35892;BME280;21993;42.672;23.296;2023-06-22T01:28:46;95122.19;;;21.89;63.42
35892;BME280;21993;42.672;23.296;2023-06-22T01:31:27;95127.53;;;21.89;63.26
35892;BME280;21993;42.672;23.296;2023-06-22T01:33:57;95141.09;;;21.88;63.40
35892;BME280;21993;42.672;23.296;2023-06-22T01:36:25;95133.06;;;21.88;62.84
35892;BME280;21993;42.672;23.296;2023-06-22T01:38:52;95132.75;;;21.76;63.28
35892;BME280;21993;42.672;23.296;2023-06-22T01:41:19;95132.00;;;21.82;63.28
35892;BME280;21993;42.672;23.296;2023-06-22T01:43:45;95137.13;;;21.84;63.11
35892;BME280;21993;42.672;23.296;2023-06-22T01:46:12;95127.25;;;21.78;63.87
35892;BME280;21993;42.672;23.296;2023-06-22T01:48:38;95141.03;;;21.81;63.64
35892;BME280;21993;42.672;23.296;2023-06-22T01:51:04;95138.56;;;21.80;63.46
35892;BME280;21993;42.672;23.296;2023-06-22T01:53:30;95129.72;;;21.79;63.30
35892;BME280;21993;42.672;23.296;2023-06-22T01:55:56;95151.09;;;21.79;63.71
35892;BME280;21993;42.672;23.296;2023-06-22T01:58:25;95140.16;;;21.74;64.26
35892;BME280;21993;42.672;23.296;2023-06-22T02:01:09;95148.38;;;21.73;63.93
35892;BME280;21993;42.672;23.296;2023-06-22T02:03:41;95144.19;;;21.63;64.31
35892;BME280;21993;42.672;23.296;2023-06-22T02:06:16;95151.75;;;21.60;64.34
35892;BME280;21993;42.672;23.296;2023-06-22T02:08:56;95149.28;;;21.58;63.80
35892;BME280;21993;42.672;23.296;2023-06-22T02:11:22;95158.69;;;21.54;64.15
35892;BME280;21993;42.672;23.296;2023-06-22T02:13:49;95152.53;;;21.54;64.52
35892;BME280;21993;42.672;23.296;2023-06-22T02:16:15;95150.88;;;21.53;64.41
35892;BME280;21993;42.672;23.296;2023-06-22T02:18:50;95135.03;;;21.51;64.66
35892;BME280;21993;42.672;23.296;2023-06-22T02:21:19;95140.97;;;21.47;64.97
35892;BME280;21993;42.672;23.296;2023-06-22T02:23:45;95137.69;;;21.51;64.39
35892;BME280;21993;42.672;23.296;2023-06-22T02:26:11;95140.38;;;21.51;64.88
35892;BME280;21993;42.672;23.296;2023-06-22T02:28:37;95142.81;;;21.46;64.56
35892;BME280;21993;42.672;23.296;2023-06-22T02:31:02;95139.88;;;21.41;64.76
35892;BME280;21993;42.672;23.296;2023-06-22T02:33:28;95128.16;;;21.42;64.40
35892;BME280;21993;42.672;23.296;2023-06-22T02:35:53;95138.03;;;21.42;64.50
35892;BME280;21993;42.672;23.296;2023-06-22T02:38:19;95140.25;;;21.38;64.83
35892;BME280;21993;42.672;23.296;2023-06-22T02:40:45;95145.59;;;21.38;64.65
35892;BME280;21993;42.672;23.296;2023-06-22T02:43:10;95144.13;;;21.35;65.06
35892;BME280;21993;42.672;23.296;2023-06-22T02:45:36;95142.25;;;21.29;64.40
35892;BME280;21993;42.672;23.296;2023-06-22T02:48:01;95142.97;;;21.23;64.40
35892;BME280;21993;42.672;23.296;2023-06-22T02:50:27;95141.13;;;21.24;63.75
35892;BME280;21993;42.672;23.296;2023-06-22T02:52:52;95142.34;;;21.21;64.26
35892;BME280;21993;42.672;23.296;2023-06-22T02:55:18;95141.31;;;21.22;63.44
35892;BME280;21993;42.672;23.296;2023-06-22T02:57:43;95138.38;;;21.17;63.41
35892;BME280;21993;42.672;23.296;2023-06-22T03:00:10;95144.09;;;21.14;64.08
35892;BME280;21993;42.672;23.296;2023-06-22T03:02:46;95142.47;;;21.13;64.18
35892;BME280;21993;42.672;23.296;2023-06-22T03:05:12;95139.78;;;21.13;64.32
35892;BME280;21993;42.672;23.296;2023-06-22T03:07:43;95145.47;;;21.10;64.71
35892;BME280;21993;42.672;23.296;2023-06-22T03:10:09;95141.00;;;21.11;64.90
35892;BME280;21993;42.672;23.296;2023-06-22T03:12:36;95147.31;;;21.09;64.94
35892;BME280;21993;42.672;23.296;2023-06-22T03:15:02;95162.38;;;21.11;64.56
35892;BME280;21993;42.672;23.296;2023-06-22T03:17:27;95166.69;;;21.12;65.26
35892;BME280;21993;42.672;23.296;2023-06-22T03:19:52;95174.22;;;21.08;65.42
35892;BME280;21993;42.672;23.296;2023-06-22T03:22:18;95180.19;;;21.10;65.16
35892;BME280;21993;42.672;23.296;2023-06-22T03:24:43;95181.41;;;21.07;65.68
35892;BME280;21993;42.672;23.296;2023-06-22T03:27:09;95173.78;;;21.04;65.96
35892;BME280;21993;42.672;23.296;2023-06-22T03:29:34;95171.56;;;21.08;66.24
35892;BME280;21993;42.672;23.296;2023-06-22T03:31:59;95180.78;;;21.05;66.46
35892;BME280;21993;42.672;23.296;2023-06-22T03:34:25;95177.28;;;21.05;66.64
35892;BME280;21993;42.672;23.296;2023-06-22T03:36:50;95181.78;;;21.04;66.37
35892;BME280;21993;42.672;23.296;2023-06-22T03:39:16;95179.13;;;21.04;67.11
35892;BME280;21993;42.672;23.296;2023-06-22T03:41:41;95187.13;;;21.04;67.20
35892;BME280;21993;42.672;23.296;2023-06-22T03:44:06;95196.97;;;21.04;67.24
35892;BME280;21993;42.672;23.296;2023-06-22T03:46:35;95194.13;;;21.05;67.18
35892;BME280;21993;42.672;23.296;2023-06-22T03:49:01;95188.78;;;21.05;67.14
35892;BME280;21993;42.672;23.296;2023-06-22T03:51:28;95195.97;;;21.05;66.91
35892;BME280;21993;42.672;23.296;2023-06-22T03:53:53;95204.16;;;21.03;67.45
35892;BME280;21993;42.672;23.296;2023-06-22T03:56:19;95199.66;;;21.04;67.25
35892;BME280;21993;42.672;23.296;2023-06-22T03:58:46;95206.25;;;21.08;67.06
35892;BME280;21993;42.672;23.296;2023-06-22T04:01:11;95194.56;;;21.09;67.32
35892;BME280;21993;42.672;23.296;2023-06-22T04:03:38;95202.56;;;21.09;67.12
35892;BME280;21993;42.672;23.296;2023-06-22T04:06:03;95202.13;;;21.05;67.06
35892;BME280;21993;42.672;23.296;2023-06-22T04:08:29;95203.69;;;21.00;67.07
35892;BME280;21993;42.672;23.296;2023-06-22T04:10:55;95192.47;;;21.04;66.83
35892;BME280;21993;42.672;23.296;2023-06-22T04:13:20;95195.16;;;21.04;66.71
35892;BME280;21993;42.672;23.296;2023-06-22T04:15:46;95193.09;;;21.06;66.78
35892;BME280;21993;42.672;23.296;2023-06-22T04:18:11;95173.78;;;21.04;66.88
35892;BME280;21993;42.672;23.296;2023-06-22T04:20:38;95183.06;;;21.08;66.80
35892;BME280;21993;42.672;23.296;2023-06-22T04:23:04;95182.69;;;21.12;66.06
35892;BME280;21993;42.672;23.296;2023-06-22T04:25:29;95170.59;;;21.16;66.50
35892;BME280;21993;42.672;23.296;2023-06-22T04:27:55;95165.38;;;21.07;66.92
35892;BME280;21993;42.672;23.296;2023-06-22T04:30:20;95177.63;;;21.02;67.29
35892;BME280;21993;42.672;23.296;2023-06-22T04:32:46;95175.16;;;21.00;67.79
35892;BME280;21993;42.672;23.296;2023-06-22T04:35:23;95181.16;;;21.02;67.97
35892;BME280;21993;42.672;23.296;2023-06-22T04:37:49;95174.59;;;21.05;67.48
35892;BME280;21993;42.672;23.296;2023-06-22T04:40:15;95175.25;;;21.07;67.13
35892;BME280;21993;42.672;23.296;2023-06-22T04:42:41;95188.88;;;21.12;66.91
35892;BME280;21993;42.672;23.296;2023-06-22T04:45:19;95178.00;;;21.14;66.54
35892;BME280;21993;42.672;23.296;2023-06-22T04:47:44;95183.06;;;21.08;66.95
35892;BME280;21993;42.672;23.296;2023-06-22T04:50:11;95187.75;;;21.06;67.46
35892;BME280;21993;42.672;23.296;2023-06-22T04:52:37;95185.81;;;21.15;67.32
35892;BME280;21993;42.672;23.296;2023-06-22T04:55:02;95179.56;;;21.08;67.76
35892;BME280;21993;42.672;23.296;2023-06-22T04:57:29;95193.63;;;21.17;67.69
35892;BME280;21993;42.672;23.296;2023-06-22T04:59:57;95189.38;;;21.22;67.76
35892;BME280;21993;42.672;23.296;2023-06-22T05:02:22;95191.34;;;21.14;67.89
35892;BME280;21993;42.672;23.296;2023-06-22T05:04:53;95193.38;;;21.12;68.48
35892;BME280;21993;42.672;23.296;2023-06-22T05:07:22;95182.59;;;21.20;68.34
35892;BME280;21993;42.672;23.296;2023-06-22T05:09:50;95192.59;;;21.32;67.95
35892;BME280;21993;42.672;23.296;2023-06-22T05:12:16;95192.41;;;21.34;67.48
35892;BME280;21993;42.672;23.296;2023-06-22T05:14:41;95196.78;;;21.42;66.81
35892;BME280;21993;42.672;23.296;2023-06-22T05:17:07;95188.56;;;21.43;67.05
35892;BME280;21993;42.672;23.296;2023-06-22T05:19:38;95186.31;;;21.40;66.74
35892;BME280;21993;42.672;23.296;2023-06-22T05:22:04;95192.75;;;21.46;66.42
35892;BME280;21993;42.672;23.296;2023-06-22T05:24:29;95188.03;;;21.48;66.33
35892;BME280;21993;42.672;23.296;2023-06-22T05:26:55;95189.13;;;21.53;65.59
35892;BME280;21993;42.672;23.296;2023-06-22T05:29:20;95199.84;;;21.60;64.83
35892;BME280;21993;42.672;23.296;2023-06-22T05:31:47;95190.84;;;21.61;65.56
35892;BME280;21993;42.672;23.296;2023-06-22T05:34:12;95200.09;;;21.65;65.79
35892;BME280;21993;42.672;23.296;2023-06-22T05:36:38;95198.88;;;21.68;66.07
35892;BME280;21993;42.672;23.296;2023-06-22T05:39:14;95206.34;;;21.72;66.16
35892;BME280;21993;42.672;23.296;2023-06-22T05:41:40;95210.09;;;21.78;66.20
35892;BME280;21993;42.672;23.296;2023-06-22T05:44:06;95215.63;;;21.76;66.51
35892;BME280;21993;42.672;23.296;2023-06-22T05:46:32;95218.75;;;21.80;66.94
35892;BME280;21993;42.672;23.296;2023-06-22T05:48:57;95218.16;;;21.84;67.15
35892;BME280;21993;42.672;23.296;2023-06-22T05:51:23;95219.50;;;21.95;67.05
35892;BME280;21993;42.672;23.296;2023-06-22T05:53:48;95224.81;;;22.16;66.22
35892;BME280;21993;42.672;23.296;2023-06-22T05:56:17;95223.59;;;22.19;65.44
35892;BME280;21993;42.672;23.296;2023-06-22T05:58:43;95230.19;;;22.16;65.75
35892;BME280;21993;42.672;23.296;2023-06-22T06:01:08;95223.09;;;22.30;65.47
35892;BME280;21993;42.672;23.296;2023-06-22T06:03:34;95220.09;;;22.46;64.14
35892;BME280;21993;42.672;23.296;2023-06-22T06:05:59;95225.69;;;22.52;63.94
35892;BME280;21993;42.672;23.296;2023-06-22T06:08:24;95224.94;;;22.64;63.45
35892;BME280;21993;42.672;23.296;2023-06-22T06:10:50;95214.06;;;22.72;62.92
35892;BME280;21993;42.672;23.296;2023-06-22T06:13:18;95205.19;;;22.65;63.68
35892;BME280;21993;42.672;23.296;2023-06-22T06:15:43;95203.75;;;22.69;63.31
35892;BME280;21993;42.672;23.296;2023-06-22T06:18:09;95199.47;;;22.75;63.57
35892;BME280;21993;42.672;23.296;2023-06-22T06:20:34;95194.94;;;22.75;64.70
35892;BME280;21993;42.672;23.296;2023-06-22T06:23:00;95206.09;;;22.79;64.71
35892;BME280;21993;42.672;23.296;2023-06-22T06:25:27;95195.25;;;22.94;63.16
35892;BME280;21993;42.672;23.296;2023-06-22T06:27:52;95197.72;;;22.89;63.69
35892;BME280;21993;42.672;23.296;2023-06-22T06:30:19;95195.69;;;22.97;63.43
35892;BME280;21993;42.672;23.296;2023-06-22T06:32:46;95205.59;;;23.10;63.47
35892;BME280;21993;42.672;23.296;2023-06-22T06:35:13;95199.47;;;23.23;63.26
35892;BME280;21993;42.672;23.296;2023-06-22T06:37:43;95202.38;;;23.35;63.24
35892;BME280;21993;42.672;23.296;2023-06-22T06:40:10;95195.81;;;23.44;62.19
35892;BME280;21993;42.672;23.296;2023-06-22T06:42:43;95191.72;;;23.48;62.99
35892;BME280;21993;42.672;23.296;2023-06-22T06:45:18;95180.38;;;23.59;62.09
35892;BME280;21993;42.672;23.296;2023-06-22T06:47:44;95180.81;;;23.63;62.65
35892;BME280;21993;42.672;23.296;2023-06-22T06:50:10;95177.31;;;23.69;61.81
35892;BME280;21993;42.672;23.296;2023-06-22T06:52:36;95173.63;;;23.76;61.27
35892;BME280;21993;42.672;23.296;2023-06-22T06:55:02;95169.09;;;23.83;62.16
35892;BME280;21993;42.672;23.296;2023-06-22T06:57:29;95177.31;;;23.95;61.80
35892;BME280;21993;42.672;23.296;2023-06-22T06:59:58;95181.25;;;24.06;61.32
35892;BME280;21993;42.672;23.296;2023-06-22T07:02:24;95167.22;;;24.10;61.97
35892;BME280;21993;42.672;23.296;2023-06-22T07:04:49;95166.38;;;24.23;62.78
35892;BME280;21993;42.672;23.296;2023-06-22T07:07:15;95162.84;;;24.29;61.42
35892;BME280;21993;42.672;23.296;2023-06-22T07:09:41;95174.41;;;24.56;60.87
35892;BME280;21993;42.672;23.296;2023-06-22T07:12:06;95164.66;;;24.68;60.14
35892;BME280;21993;42.672;23.296;2023-06-22T07:14:32;95175.81;;;24.65;60.99
35892;BME280;21993;42.672;23.296;2023-06-22T07:16:58;95173.13;;;24.72;60.94
35892;BME280;21993;42.672;23.296;2023-06-22T07:19:27;95173.84;;;24.92;60.54
35892;BME280;21993;42.672;23.296;2023-06-22T07:21:53;95172.22;;;24.91;59.43
35892;BME280;21993;42.672;23.296;2023-06-22T07:24:20;95171.38;;;24.97;59.87
35892;BME280;21993;42.672;23.296;2023-06-22T07:26:49;95175.06;;;25.03;60.13
35892;BME280;21993;42.672;23.296;2023-06-22T07:29:19;95168.38;;;25.19;58.85
35892;BME280;21993;42.672;23.296;2023-06-22T07:31:46;95170.38;;;25.30;59.13
35892;BME280;21993;42.672;23.296;2023-06-22T07:34:13;95171.41;;;25.36;58.56
35892;BME280;21993;42.672;23.296;2023-06-22T07:36:39;95177.13;;;25.46;58.88
35892;BME280;21993;42.672;23.296;2023-06-22T07:39:04;95177.66;;;25.61;58.36
35892;BME280;21993;42.672;23.296;2023-06-22T07:41:30;95181.13;;;25.75;57.22
35892;BME280;21993;42.672;23.296;2023-06-22T07:43:56;95176.50;;;25.82;57.84
35892;BME280;21993;42.672;23.296;2023-06-22T07:46:22;95180.81;;;25.90;57.45
35892;BME280;21993;42.672;23.296;2023-06-22T07:48:48;95183.63;;;25.95;58.05
35892;BME280;21993;42.672;23.296;2023-06-22T07:51:13;95183.59;;;26.01;57.35
35892;BME280;21993;42.672;23.296;2023-06-22T07:53:41;95180.13;;;26.19;57.36
35892;BME280;21993;42.672;23.296;2023-06-22T07:56:07;95175.09;;;26.23;57.36
35892;BME280;21993;42.672;23.296;2023-06-22T07:58:32;95180.66;;;26.28;57.10
35892;BME280;21993;42.672;23.296;2023-06-22T08:00:59;95178.56;;;26.30;57.49
35892;BME280;21993;42.672;23.296;2023-06-22T08:03:25;95169.19;;;26.39;56.96
35892;BME280;21993;42.672;23.296;2023-06-22T08:05:50;95164.13;;;26.49;56.59
35892;BME280;21993;42.672;23.296;2023-06-22T08:08:16;95168.13;;;26.40;57.46
35892;BME280;21993;42.672;23.296;2023-06-22T08:10:42;95159.88;;;26.42;56.62
35892;BME280;21993;42.672;23.296;2023-06-22T08:13:07;95158.34;;;26.46;57.02
35892;BME280;21993;42.672;23.296;2023-06-22T08:15:33;95158.22;;;26.59;56.60
35892;BME280;21993;42.672;23.296;2023-06-22T08:17:59;95152.16;;;26.63;55.71
35892;BME280;21993;42.672;23.296;2023-06-22T08:20:26;95151.78;;;26.60;56.75
35892;BME280;21993;42.672;23.296;2023-06-22T08:22:53;95155.13;;;26.74;56.59
35892;BME280;21993;42.672;23.296;2023-06-22T08:25:19;95150.34;;;26.94;55.52
35892;BME280;21993;42.672;23.296;2023-06-22T08:27:45;95141.69;;;26.92;56.67
35892;BME280;21993;42.672;23.296;2023-06-22T08:30:12;95146.13;;;26.98;56.70
35892;BME280;21993;42.672;23.296;2023-06-22T08:32:37;95143.25;;;27.00;56.45
35892;BME280;21993;42.672;23.296;2023-06-22T08:35:03;95140.84;;;27.10;55.76
35892;BME280;21993;42.672;23.296;2023-06-22T08:37:29;95141.91;;;27.09;55.72
35892;BME280;21993;42.672;23.296;2023-06-22T08:40:01;95137.69;;;27.13;54.32
35892;BME280;21993;42.672;23.296;2023-06-22T08:42:27;95136.09;;;27.24;54.20
35892;BME280;21993;42.672;23.296;2023-06-22T08:44:52;95149.44;;;27.18;54.56
35892;BME280;21993;42.672;23.296;2023-06-22T08:47:19;95149.13;;;27.27;53.93
35892;BME280;21993;42.672;23.296;2023-06-22T08:49:44;95150.13;;;27.44;52.42
35892;BME280;21993;42.672;23.296;2023-06-22T08:52:10;95146.47;;;27.38;53.67
35892;BME280;21993;42.672;23.296;2023-06-22T08:54:35;95140.63;;;27.41;53.43
35892;BME280;21993;42.672;23.296;2023-06-22T08:57:02;95143.03;;;27.61;52.15
35892;BME280;21993;42.672;23.296;2023-06-22T08:59:27;95132.59;;;27.65;51.07
35892;BME280;21993;42.672;23.296;2023-06-22T09:01:52;95124.31;;;27.78;51.01
35892;BME280;21993;42.672;23.296;2023-06-22T09:04:18;95122.78;;;27.70;51.77
35892;BME280;21993;42.672;23.296;2023-06-22T09:06:43;95119.31;;;27.93;50.43
35892;BME280;21993;42.672;23.296;2023-06-22T09:09:12;95113.91;;;27.93;51.17
35892;BME280;21993;42.672;23.296;2023-06-22T09:11:38;95121.88;;;27.88;51.91
35892;BME280;21993;42.672;23.296;2023-06-22T09:14:03;95128.31;;;27.87;52.35
35892;BME280;21993;42.672;23.296;2023-06-22T09:16:29;95118.94;;;27.90;50.97
35892;BME280;21993;42.672;23.296;2023-06-22T09:18:55;95128.31;;;27.99;51.00
35892;BME280;21993;42.672;23.296;2023-06-22T09:21:20;95122.59;;;28.07;50.88
35892;BME280;21993;42.672;23.296;2023-06-22T09:23:46;95114.75;;;28.17;50.06
35892;BME280;21993;42.672;23.296;2023-06-22T09:26:15;95111.81;;;28.42;47.28
35892;BME280;21993;42.672;23.296;2023-06-22T09:28:41;95121.91;;;28.35;48.09
35892;BME280;21993;42.672;23.296;2023-06-22T09:31:06;95127.09;;;28.37;48.19
35892;BME280;21993;42.672;23.296;2023-06-22T09:33:31;95129.97;;;28.58;46.26
35892;BME280;21993;42.672;23.296;2023-06-22T09:35:57;95131.31;;;28.44;48.80
35892;BME280;21993;42.672;23.296;2023-06-22T09:38:22;95135.16;;;28.48;48.56
35892;BME280;21993;42.672;23.296;2023-06-22T09:40:48;95136.59;;;28.51;48.29
35892;BME280;21993;42.672;23.296;2023-06-22T09:43:13;95137.50;;;28.68;47.87
35892;BME280;21993;42.672;23.296;2023-06-22T09:45:39;95132.69;;;28.70;46.94
35892;BME280;21993;42.672;23.296;2023-06-22T09:48:04;95123.00;;;28.86;46.54
35892;BME280;21993;42.672;23.296;2023-06-22T09:50:30;95127.09;;;28.88;46.81
35892;BME280;21993;42.672;23.296;2023-06-22T09:52:55;95134.81;;;29.08;44.92
35892;BME280;21993;42.672;23.296;2023-06-22T09:55:21;95111.22;;;29.04;45.70
35892;BME280;21993;42.672;23.296;2023-06-22T09:57:47;95118.13;;;29.11;44.47
35892;BME280;21993;42.672;23.296;2023-06-22T10:00:13;95118.38;;;29.10;45.07
35892;BME280;21993;42.672;23.296;2023-06-22T10:02:41;95121.09;;;29.10;45.06
35892;BME280;21993;42.672;23.296;2023-06-22T10:05:07;95115.31;;;29.18;45.77
35892;BME280;21993;42.672;23.296;2023-06-22T10:07:33;95116.88;;;29.31;45.45
35892;BME280;21993;42.672;23.296;2023-06-22T10:09:58;95105.81;;;29.32;45.68
35892;BME280;21993;42.672;23.296;2023-06-22T10:12:24;95112.97;;;29.38;44.76
35892;BME280;21993;42.672;23.296;2023-06-22T10:14:49;95102.09;;;29.50;44.89
35892;BME280;21993;42.672;23.296;2023-06-22T10:17:15;95106.44;;;29.51;44.79
35892;BME280;21993;42.672;23.296;2023-06-22T10:19:40;95100.81;;;29.53;44.80
35892;BME280;21993;42.672;23.296;2023-06-22T10:22:06;95097.03;;;29.54;45.02
35892;BME280;21993;42.672;23.296;2023-06-22T10:24:32;95100.72;;;29.64;44.08
35892;BME280;21993;42.672;23.296;2023-06-22T10:26:57;95102.38;;;29.82;43.65
35892;BME280;21993;42.672;23.296;2023-06-22T10:29:23;95102.72;;;29.86;43.87
35892;BME280;21993;42.672;23.296;2023-06-22T10:31:48;95103.19;;;29.83;44.09
35892;BME280;21993;42.672;23.296;2023-06-22T10:34:14;95095.47;;;29.91;43.71
35892;BME280;21993;42.672;23.296;2023-06-22T10:36:39;95093.94;;;29.95;43.88
35892;BME280;21993;42.672;23.296;2023-06-22T10:39:04;95082.19;;;29.90;43.17
35892;BME280;21993;42.672;23.296;2023-06-22T10:41:31;95080.66;;;29.94;43.39
35892;BME280;21993;42.672;23.296;2023-06-22T10:43:56;95080.88;;;29.92;43.48
35892;BME280;21993;42.672;23.296;2023-06-22T10:46:24;95082.69;;;30.04;43.48
35892;BME280;21993;42.672;23.296;2023-06-22T10:48:51;95067.97;;;29.99;43.22
35892;BME280;21993;42.672;23.296;2023-06-22T10:51:19;95082.03;;;29.96;44.26
35892;BME280;21993;42.672;23.296;2023-06-22T10:53:44;95073.91;;;29.96;44.82
35892;BME280;21993;42.672;23.296;2023-06-22T10:56:10;95072.66;;;30.04;44.17
35892;BME280;21993;42.672;23.296;2023-06-22T10:58:35;95067.69;;;30.13;43.26
35892;BME280;21993;42.672;23.296;2023-06-22T11:01:00;95070.06;;;30.09;43.91
35892;BME280;21993;42.672;23.296;2023-06-22T11:03:28;95066.28;;;30.27;42.79
35892;BME280;21993;42.672;23.296;2023-06-22T11:05:53;95075.59;;;30.36;42.79
35892;BME280;21993;42.672;23.296;2023-06-22T11:08:18;95061.28;;;30.41;40.81
35892;BME280;21993;42.672;23.296;2023-06-22T11:10:44;95069.28;;;30.31;40.70
35892;BME280;21993;42.672;23.296;2023-06-22T11:13:09;95061.81;;;30.38;41.16
35892;BME280;21993;42.672;23.296;2023-06-22T11:15:35;95070.91;;;30.32;42.51
35892;BME280;21993;42.672;23.296;2023-06-22T11:18:01;95068.59;;;30.40;41.38
35892;BME280;21993;42.672;23.296;2023-06-22T11:20:26;95056.25;;;30.49;40.92
35892;BME280;21993;42.672;23.296;2023-06-22T11:22:52;95051.78;;;30.38;42.35
35892;BME280;21993;42.672;23.296;2023-06-22T11:25:17;95044.03;;;30.47;41.22
35892;BME280;21993;42.672;23.296;2023-06-22T11:27:42;95049.06;;;30.38;42.93
35892;BME280;21993;42.672;23.296;2023-06-22T11:30:08;95050.03;;;30.49;42.07
35892;BME280;21993;42.672;23.296;2023-06-22T11:32:34;95043.50;;;30.67;40.38
35892;BME280;21993;42.672;23.296;2023-06-22T11:34:59;95046.47;;;30.65;41.32
35892;BME280;21993;42.672;23.296;2023-06-22T11:37:25;95043.50;;;30.67;41.71
35892;BME280;21993;42.672;23.296;2023-06-22T11:39:51;95050.97;;;30.60;42.23
35892;BME280;21993;42.672;23.296;2023-06-22T11:42:17;95047.34;;;30.71;40.35
35892;BME280;21993;42.672;23.296;2023-06-22T11:44:42;95047.84;;;30.68;40.41
35892;BME280;21993;42.672;23.296;2023-06-22T11:47:09;95046.94;;;30.62;40.65
35892;BME280;21993;42.672;23.296;2023-06-22T11:49:34;95036.03;;;30.57;41.66
35892;BME280;21993;42.672;23.296;2023-06-22T11:51:59;95039.88;;;30.61;42.66
35892;BME280;21993;42.672;23.296;2023-06-22T11:54:25;95038.88;;;30.67;43.03
35892;BME280;21993;42.672;23.296;2023-06-22T11:56:50;95035.91;;;30.69;43.09
35892;BME280;21993;42.672;23.296;2023-06-22T11:59:16;95035.50;;;30.60;43.39
35892;BME280;21993;42.672;23.296;2023-06-22T12:01:41;95044.16;;;30.57;42.89
35892;BME280;21993;42.672;23.296;2023-06-22T12:04:07;95039.56;;;30.58;42.83
35892;BME280;21993;42.672;23.296;2023-06-22T12:06:32;95047.06;;;30.50;43.60
35892;BME280;21993;42.672;23.296;2023-06-22T12:08:58;95045.75;;;30.53;43.65
35892;BME280;21993;42.672;23.296;2023-06-22T12:11:24;95051.72;;;30.55;43.55
35892;BME280;21993;42.672;23.296;2023-06-22T12:13:49;95050.91;;;30.54;43.76
35892;BME280;21993;42.672;23.296;2023-06-22T12:16:15;95068.72;;;30.50;43.94
35892;BME280;21993;42.672;23.296;2023-06-22T12:18:40;95063.53;;;30.44;44.14
35892;BME280;21993;42.672;23.296;2023-06-22T12:21:06;95058.41;;;30.47;44.46
35892;BME280;21993;42.672;23.296;2023-06-22T12:23:32;95056.00;;;30.51;45.16
35892;BME280;21993;42.672;23.296;2023-06-22T12:25:57;95058.97;;;30.49;46.02
35892;BME280;21993;42.672;23.296;2023-06-22T12:28:23;95056.78;;;30.46;48.78
35892;BME280;21993;42.672;23.296;2023-06-22T12:30:48;95055.47;;;30.32;49.32
35892;BME280;21993;42.672;23.296;2023-06-22T12:33:14;95076.47;;;30.20;48.76
35892;BME280;21993;42.672;23.296;2023-06-22T12:35:39;95078.19;;;30.09;51.65
35892;BME280;21993;42.672;23.296;2023-06-22T12:38:05;95089.50;;;29.89;52.07
35892;BME280;21993;42.672;23.296;2023-06-22T12:40:32;95073.56;;;29.76;51.64
35892;BME280;21993;42.672;23.296;2023-06-22T12:42:58;95083.66;;;29.64;53.49
35892;BME280;21993;42.672;23.296;2023-06-22T12:45:23;95076.69;;;29.51;54.98
35892;BME280;21993;42.672;23.296;2023-06-22T12:47:50;95088.50;;;29.33;55.45
35892;BME280;21993;42.672;23.296;2023-06-22T12:50:16;95096.84;;;29.15;55.63
35892;BME280;21993;42.672;23.296;2023-06-22T12:52:41;95107.59;;;28.98;56.78